Flight Track Log - Related Links

Times and Time Zones

All times are in EDT time to prevent confusion due to time zone crossing. See the ACA831 flight status page for this flight to view local times or setup timezone preferences in your user account.

Time Position Orientation Groundspeed Altitude Reporting Facility
EDT Latitude Longitude Course Direction KTS MPH feet Rate Location/Type
Thu 06:25:25 AM 46.2040 6.0990 90° East 140 161  Level FlightAware ADS-B
Thu 06:25:45 AM 46.2140 6.1140 46° Northeast 177 204 1,500 3,450 Climbing FlightAware ADS-B
Thu 06:26:05 AM 46.2250 6.1300 45° Northeast 188 216 2,300 2,700 Climbing FlightAware ADS-B
Thu 06:26:25 AM 46.2390 6.1510 46° Northeast 187 215 3,300 2,520 Climbing FlightAware ADS-B
Thu 06:26:55 AM 46.2570 6.1780 46° Northeast 196 226 4,400 1,655 Climbing FlightAware ADS-B
Thu 06:27:23 AM 46.2780 6.2100 46° Northeast 250 288 4,900 1,500 Climbing FlightAware ADS-B
Thu 06:27:39 AM 46.2900 6.2290 48° Northeast 260 299 5,500 2,333 Climbing FlightAware ADS-B
Thu 06:27:59 AM 46.3080 6.2560 46° Northeast 275 316 6,300 2,526 Climbing FlightAware ADS-B
Thu 06:28:17 AM 46.3240 6.2800 46° Northeast 285 328 7,100 3,000 Climbing FlightAware ADS-B
Thu 06:28:35 AM 46.3410 6.3030 43° Northeast 287 330 8,100 3,200 Climbing FlightAware ADS-B
Thu 06:28:47 AM 46.3560 6.3120 22° Northeast 289 333 8,700 3,273 Climbing FlightAware ADS-B
Thu 06:28:57 AM 46.3700 6.3140 North 290 334 9,300 3,300 Climbing FlightAware ADS-B
Thu 06:29:07 AM 46.3820 6.3110 350° North 288 331 9,800 2,368 Climbing FlightAware ADS-B
Thu 06:29:35 AM 46.4180 6.2920 340° North 309 356 10,800 1,909 Climbing FlightAware ADS-B
Thu 06:29:51 AM 46.4360 6.2680 317° Northwest 330 380 11,200 1,320 Climbing FlightAware ADS-B
Thu 06:30:25 AM 46.4660 6.2020 303° West 370 426 11,900 1,629 Climbing FlightAware ADS-B
Thu 06:31:01 AM 46.5020 6.1220 303° West 400 460 13,100 2,364 Climbing FlightAware ADS-B
Thu 06:31:31 AM 46.5320 6.0530 302° West 408 470 14,500 2,783 Climbing FlightAware ADS-B
Thu 06:32:10 AM 46.5730 5.9620 303° West 420 483 16,300 2,676 Climbing FlightAware ADS-B
Thu 06:32:45 AM 46.6100 5.8790 303° West 426 490 17,800 2,559 Climbing FlightAware ADS-B
Thu 06:33:18 AM 46.6450 5.7980 302° West 437 503 19,200 2,486 Climbing FlightAware ADS-B
Thu 06:33:55 AM 46.6840 5.7110 303° West 441 507 20,700 2,333 Climbing FlightAware ADS-B
Thu 06:34:30 AM 46.7250 5.6180 303° West 449 517 22,000 2,261 Climbing FlightAware ADS-B
Thu 06:35:04 AM 46.7640 5.5300 303° West 455 524 23,300 2,206 Climbing FlightAware ADS-B
Thu 06:35:38 AM 46.8020 5.4420 302° West 461 531 24,500 2,057 Climbing FlightAware ADS-B
Thu 06:36:14 AM 46.8440 5.3460 303° West 466 536 25,700 1,973 Climbing FlightAware ADS-B
Thu 06:36:51 AM 46.8900 5.2510 305° West 473 544 26,900 2,301 Climbing FlightAware ADS-B
Thu 06:37:27 AM 46.9440 5.1710 315° West 465 535 28,500 2,507 Climbing FlightAware ADS-B
Thu 06:37:58 AM 46.9940 5.1050 318° Northwest 460 529 29,700 2,239 Climbing FlightAware ADS-B
Thu 06:38:34 AM 47.0500 5.0310 318° Northwest 455 524 31,000 1,583 Climbing FlightAware ADS-B
Thu 06:39:10 AM 47.1050 4.9580 318° Northwest 459 528 31,600 714 Climbing FlightAware ADS-B
Thu 06:39:58 AM 47.1710 4.8710 318° Northwest 460 529 32,000 300 Climbing FlightAware ADS-B
Thu 06:40:30 AM 47.2190 4.8050 317° Northwest 458 527 32,000  Level FlightAware ADS-B
Thu 06:41:07 AM 47.2890 4.7110 318° Northwest 453 521 32,000  Level FlightAware ADS-B
Thu 06:41:43 AM 47.3430 4.6390 318° Northwest 452 520 32,000  Level FlightAware ADS-B
Thu 06:42:16 AM 47.3970 4.5660 318° Northwest 453 521 32,000  Level FlightAware ADS-B
Thu 06:42:54 AM 47.4550 4.4870 317° Northwest 452 520 32,000  Level FlightAware ADS-B
Thu 06:43:23 AM 47.4970 4.4310 318° Northwest 452 520 32,000  Level FlightAware ADS-B
Thu 06:44:00 AM 47.5540 4.3530 317° Northwest 451 519 32,000  Level FlightAware ADS-B
Thu 06:44:40 AM 47.6150 4.2650 316° Northwest 450 518 32,000  Level FlightAware ADS-B
Thu 06:45:15 AM 47.6580 4.1810 307° West 449 517 32,000  Level FlightAware ADS-B
Thu 06:45:48 AM 47.6980 4.0940 304° West 448 516 32,000  Level FlightAware ADS-B
Thu 06:46:25 AM 47.7400 4.0020 304° West 448 516 32,000  Level FlightAware ADS-B
Thu 06:46:58 AM 47.7780 3.9170 304° West 449 517 32,000  Level FlightAware ADS-B
Thu 06:47:40 AM 47.8270 3.8080 304° West 447 514 32,000  Level FlightAware ADS-B
Thu 06:48:17 AM 47.8690 3.7140 304° West 447 514 32,000  Level FlightAware ADS-B
Thu 06:48:50 AM 47.9020 3.6390 303° West 447 514 32,000  Level FlightAware ADS-B
Thu 06:49:27 AM 47.9560 3.5420 310° West 453 521 32,000  Level FlightAware ADS-B
Thu 06:50:02 AM 48.0120 3.4690 319° Northwest 456 525 32,000  Level FlightAware ADS-B
Thu 06:50:31 AM 48.0520 3.4170 319° Northwest 455 524 32,000  Level FlightAware ADS-B
Thu 06:51:09 AM 48.1180 3.3330 320° Northwest 455 524 32,000  Level FlightAware ADS-B
Thu 06:51:46 AM 48.1780 3.2550 319° Northwest 456 525 32,000  Level FlightAware ADS-B
Thu 06:52:21 AM 48.2320 3.1870 320° Northwest 457 526 32,000  Level FlightAware ADS-B
Thu 06:52:54 AM 48.2810 3.1080 313° West 451 519 32,000  Level FlightAware ADS-B
Thu 06:53:23 AM 48.3080 3.0280 297° West 446 513 32,000  Level FlightAware ADS-B
Thu 06:53:59 AM 48.3310 2.9230 288° West 447 514 32,000  Level FlightAware ADS-B
Thu 06:54:32 AM 48.3500 2.8310 287° West 447 514 32,000  Level FlightAware ADS-B
Thu 06:55:04 AM 48.3720 2.7280 288° West 448 516 32,000  Level FlightAware ADS-B
Thu 06:55:44 AM 48.3960 2.6110 287° West 447 514 32,000  Level FlightAware ADS-B
Thu 06:56:22 AM 48.4180 2.5000 287° West 448 516 32,000  Level FlightAware ADS-B
Thu 06:57:02 AM 48.4400 2.3880 287° West 448 516 32,000  Level FlightAware ADS-B
Thu 06:57:35 AM 48.4620 2.2820 287° West 448 516 32,000  Level FlightAware ADS-B
Thu 06:58:08 AM 48.4820 2.1810 287° West 448 516 32,000  Level FlightAware ADS-B
Thu 06:58:47 AM 48.5040 2.0700 287° West 447 514 32,000  Level FlightAware ADS-B
Thu 06:59:23 AM 48.5260 1.9630 287° West 448 516 32,000  Level FlightAware ADS-B
Thu 07:00:03 AM 48.5490 1.8400 286° West 448 516 32,000  Level FlightAware ADS-B
Thu 07:00:35 AM 48.5670 1.7450 286° West 448 516 32,000  Level FlightAware ADS-B
Thu 07:01:15 AM 48.5900 1.6280 287° West 450 518 32,000  Level FlightAware ADS-B
Thu 07:01:45 AM 48.6070 1.5390 286° West 450 518 32,000  Level FlightAware ADS-B
Thu 07:02:20 AM 48.6270 1.4330 286° West 450 518 32,000  Level FlightAware ADS-B
Thu 07:02:45 AM 48.6410 1.3650 287° West 450 518 32,000  Level FlightAware ADS-B
Thu 07:03:23 AM 48.6650 1.2400 286° West 451 519 32,000  Level FlightAware ADS-B
Thu 07:04:00 AM 48.6880 1.1230 287° West 450 518 32,000  Level FlightAware ADS-B
Thu 07:04:34 AM 48.7070 1.0240 286° West 450 518 32,000  Level FlightAware ADS-B
Thu 07:05:11 AM 48.7280 0.9120 286° West 449 517 32,000  Level FlightAware ADS-B
Thu 07:05:46 AM 48.7480 0.8080 286° West 448 516 32,000  Level FlightAware ADS-B
Thu 07:06:18 AM 48.7670 0.7060 286° West 448 516 32,000  Level FlightAware ADS-B
Thu 07:07:00 AM 48.7890 0.5840 285° West 449 517 32,000  Level FlightAware ADS-B
Thu 07:07:32 AM 48.8070 0.4850 285° West 449 517 32,000  Level FlightAware ADS-B
Thu 07:08:08 AM 48.8270 0.3780 286° West 447 514 32,000  Level FlightAware ADS-B
Thu 07:08:38 AM 48.8440 0.2830 285° West 447 514 32,000  Level FlightAware ADS-B
Thu 07:09:12 AM 48.8860 0.1762 285° West 472 543 32,000  Level FlightAware UK
Thu 07:09:14 AM 48.8630 0.1790 285° West 447 514 32,000  Level FlightAware ADS-B
Thu 07:09:48 AM 48.9053 0.0677 285° West 472 543 32,000  Level FlightAware UK
Thu 07:09:51 AM 48.8830 0.0650 285° West 447 514 32,000  Level FlightAware ADS-B
Thu 07:10:25 AM 48.9010 -0.0370 285° West 447 514 32,000  Level FlightAware ADS-B
Thu 07:11:00 AM 48.9210 -0.1450 286° West 447 514 32,000  Level FlightAware ADS-B
Thu 07:11:36 AM 48.9390 -0.2520 284° West 447 514 32,000  Level FlightAware ADS-B
Thu 07:12:13 AM 48.9590 -0.3650 285° West 448 516 32,000  Level FlightAware ADS-B
Thu 07:12:42 AM 48.9710 -0.4360 284° West 449 517 32,000  Level FlightAware ADS-B
Thu 07:13:19 AM 48.9930 -0.5650 285° West 449 517 32,000  Level FlightAware ADS-B
Thu 07:13:50 AM 49.0100 -0.6630 285° West 448 516 32,000  Level FlightAware ADS-B
Thu 07:14:34 AM 49.0320 -0.7950 284° West 449 517 32,000  Level FlightAware ADS-B
Thu 07:15:12 AM 49.0520 -0.9110 285° West 448 516 32,000  Level FlightAware ADS-B
Thu 07:15:48 AM 49.0690 -1.0140 284° West 447 514 32,000  Level FlightAware ADS-B
Thu 07:16:24 AM 49.0880 -1.1320 284° West 446 513 32,000  Level FlightAware ADS-B
Thu 07:16:53 AM 49.1020 -1.2140 285° West 446 513 32,000  Level FlightAware ADS-B
Thu 07:17:32 AM 49.1220 -1.3360 284° West 445 512 32,000  Level FlightAware ADS-B
Thu 07:18:06 AM 49.1390 -1.4450 283° West 445 512 32,000  Level FlightAware ADS-B
Thu 07:18:43 AM 49.1570 -1.5560 284° West 444 511 32,000  Level FlightAware ADS-B
Thu 07:19:16 AM 49.1730 -1.6560 284° West 444 511 32,000  Level FlightAware ADS-B
Thu 07:19:52 AM 49.1900 -1.7650 283° West 444 511 32,000  Level FlightAware ADS-B
Thu 07:20:29 AM 49.2080 -1.8780 284° West 443 510 32,000  Level FlightAware ADS-B
Thu 07:21:08 AM 49.2260 -1.9950 284° West 443 510 32,000  Level FlightAware ADS-B
Thu 07:21:10 AM 49.2521 -2.0130 284° West 476 548 32,000  Level FlightAware UK
Thu 07:21:40 AM 49.2662 -2.1051 284° West 476 548 32,000  Level FlightAware UK
Thu 07:21:43 AM 49.2420 -2.0980 284° West 442 509 32,000  Level FlightAware ADS-B
Thu 07:22:18 AM 49.2590 -2.2100 283° West 442 509 32,000  Level FlightAware ADS-B
Thu 07:22:53 AM 49.2730 -2.3010 283° West 442 509 32,000  Level FlightAware ADS-B
Thu 07:23:28 AM 49.2890 -2.4040 283° West 441 507 32,000  Level FlightAware ADS-B
Thu 07:24:05 AM 49.3090 -2.5350 283° West 440 506 32,000  Level FlightAware ADS-B
Thu 07:24:41 AM 49.3250 -2.6410 283° West 439 505 32,000  Level FlightAware ADS-B
Thu 07:25:17 AM 49.3410 -2.7530 282° West 439 505 32,000  Level FlightAware ADS-B
Thu 07:25:49 AM 49.3550 -2.8450 283° West 438 504 32,000  Level FlightAware ADS-B
Thu 07:26:25 AM 49.3710 -2.9570 282° West 438 504 32,000  Level FlightAware ADS-B
Thu 07:27:01 AM 49.3860 -3.0660 282° West 437 503 32,000  Level FlightAware ADS-B
Thu 07:27:37 AM 49.4020 -3.1750 283° West 434 499 32,000  Level FlightAware ADS-B
Thu 07:28:09 AM 49.4150 -3.2700 282° West 432 497 32,000  Level FlightAware ADS-B
Thu 07:28:45 AM 49.4300 -3.3750 282° West 429 494 32,000  Level FlightAware ADS-B
Thu 07:29:17 AM 49.4470 -3.4740 285° West 420 483 32,000  Level FlightAware ADS-B
Thu 07:29:55 AM 49.4760 -3.5750 294° West 413 475 32,000  Level FlightAware ADS-B
Thu 07:30:27 AM 49.5382 -3.6653 294° West 478 550 32,000  Level FlightAware UK
Thu 07:30:31 AM 49.5090 -3.6600 294° West 410 472 32,000  Level FlightAware ADS-B
Thu 07:31:03 AM 49.5731 -3.7552 294° West 478 550 32,000  Level FlightAware UK
Thu 07:31:06 AM 49.5450 -3.7530 294° West 408 470 32,000  Level FlightAware ADS-B
Thu 07:31:36 AM 49.5720 -3.8220 301° West 405 466 32,000  Level FlightAware ADS-B
Thu 07:32:14 AM 49.6090 -3.9180 301° West 404 465 32,000  Level FlightAware ADS-B
Thu 07:32:15 AM 49.6437 -3.9332 301° West 474 545 32,000  Level FlightAware UK
Thu 07:32:45 AM 49.6731 -4.0071 301° West 474 545 32,000  Level FlightAware UK
Thu 07:32:48 AM 49.6420 -4.0000 301° West 403 464 32,000  Level FlightAware ADS-B
Thu 07:33:21 AM 49.7080 -4.0955 301° West 474 545 32,000  Level FlightAware UK
Thu 07:33:21 AM 49.6720 -4.0800 301° West 402 463 32,000  Level FlightAware ADS-B
Thu 07:34:01 AM 49.7120 -4.1830 301° West 402 463 32,000  Level FlightAware ADS-B
Thu 07:34:37 AM 49.7450 -4.2730 300° West 402 463 32,000  Level FlightAware ADS-B
Thu 07:35:09 AM 49.7740 -4.3520 300° West 403 464 32,000  Level FlightAware ADS-B
Thu 07:35:39 AM 49.8367 -4.4387 300° West 472 543 32,000  Level FlightAware UK
Thu 07:35:47 AM 49.8080 -4.4460 300° West 403 464 32,000  Level FlightAware ADS-B
Thu 07:36:18 AM 49.8370 -4.5250 300° West 403 464 32,000  Level FlightAware ADS-B
Thu 07:36:56 AM 49.8720 -4.6220 299° West 406 467 32,000  Level FlightAware ADS-B
Thu 07:37:31 AM 49.9040 -4.7100 299° West 408 470 32,000  Level FlightAware ADS-B
Thu 07:38:04 AM 49.9350 -4.7950 300° West 410 472 32,000  Level FlightAware ADS-B
Thu 07:38:40 AM 49.9680 -4.8890 299° West 414 476 32,000  Level FlightAware ADS-B
Thu 07:39:16 AM 50.0000 -4.9800 299° West 416 479 32,000  Level FlightAware ADS-B
Thu 07:39:49 AM 50.0310 -5.0670 299° West 418 481 32,000  Level FlightAware ADS-B
Thu 07:40:25 AM 50.0620 -5.1570 298° West 418 481 32,000  Level FlightAware ADS-B
Thu 07:41:00 AM 50.0960 -5.2530 299° West 419 482 32,000  Level FlightAware ADS-B
Thu 07:41:34 AM 50.1290 -5.3450 299° West 420 483 32,000  Level FlightAware ADS-B
Thu 07:42:09 AM 50.2020 -5.4484 299° West 482 555 32,000  Level FlightAware UK
Thu 07:42:10 AM 50.1630 -5.4430 299° West 420 483 32,000  Level FlightAware ADS-B
Thu 07:42:45 AM 50.2363 -5.5439 299° West 480 552 32,000  Level FlightAware UK
Thu 07:42:45 AM 50.1940 -5.5320 299° West 421 484 32,000  Level FlightAware ADS-B
Thu 07:43:15 AM 50.2645 -5.6238 299° West 480 552 32,000  Level FlightAware UK
Thu 07:43:21 AM 50.2290 -5.6310 299° West 422 486 32,000  Level FlightAware ADS-B
Thu 07:43:51 AM 50.2570 -5.7130 298° West 423 487 32,000  Level FlightAware ADS-B
Thu 07:44:29 AM 50.2920 -5.8150 298° West 424 488 32,000  Level FlightAware ADS-B
Thu 07:45:06 AM 50.3250 -5.9100 299° West 424 488 32,000  Level FlightAware ADS-B
Thu 07:45:42 AM 50.3590 -6.0090 298° West 425 489 32,000  Level FlightAware ADS-B
Thu 07:46:14 AM 50.3870 -6.0940 297° West 425 489 32,000  Level FlightAware ADS-B
Thu 07:46:50 AM 50.4220 -6.1950 299° West 426 490 32,000  Level FlightAware ADS-B
Thu 07:47:26 AM 50.4550 -6.2950 297° West 427 491 32,000  Level FlightAware ADS-B
Thu 07:48:01 AM 50.4870 -6.3890 298° West 429 494 32,000  Level FlightAware ADS-B
Thu 07:48:33 AM 50.5170 -6.4790 298° West 429 494 32,000  Level FlightAware ADS-B
Thu 07:49:09 AM 50.5938 -6.5831 298° West 480 552 32,000  Level FlightAware UK
Thu 07:49:10 AM 50.5500 -6.5770 298° West 430 495 32,000  Level FlightAware ADS-B
Thu 07:49:46 AM 50.5840 -6.6780 298° West 429 494 32,000  Level FlightAware ADS-B
Thu 07:50:22 AM 50.6170 -6.7790 297° West 429 494 32,000  Level FlightAware ADS-B
Thu 07:50:54 AM 50.6450 -6.8630 298° West 429 494 32,000  Level FlightAware ADS-B
Thu 07:51:29 AM 50.6790 -6.9650 298° West 428 493 32,000  Level FlightAware ADS-B
Thu 07:52:01 AM 50.7080 -7.0530 298° West 428 493 32,000  Level FlightAware ADS-B
Thu 07:52:39 AM 50.7430 -7.1580 298° West 428 493 32,000  Level FlightAware ADS-B
Thu 07:53:14 AM 50.8222 -7.2624 298° West 478 550 32,000  Level FlightAware UK
Thu 07:53:16 AM 50.7750 -7.2570 298° West 427 491 32,000  Level FlightAware ADS-B
Thu 07:53:52 AM 50.8080 -7.3580 297° West 428 493 32,000  Level FlightAware ADS-B
Thu 07:54:23 AM 50.8370 -7.4470 297° West 428 493 32,000 618 Level FlightAware ADS-B
Thu 07:55:00 AM 50.8690 -7.5450 297° West 429 494 32,700 1,562 Climbing FlightAware ADS-B
Thu 07:55:36 AM 50.9020 -7.6460 297° West 420 483 33,900 1,541 Climbing FlightAware ADS-B
Thu 07:56:14 AM 50.9881 -7.7594 297° West 476 548 34,600 1,200 Climbing FlightAware UK
Thu 07:56:16 AM 50.9370 -7.7560 297° West 413 475 34,700 667 Climbing FlightAware ADS-B
Thu 07:56:50 AM 50.9670 -7.8470 298° West 406 467 35,000 257 Climbing FlightAware ADS-B
Thu 07:57:26 AM 50.9970 -7.9410 297° West 402 463 35,000  Level FlightAware ADS-B
Thu 07:57:56 AM 51.0736 -8.0273 297° West 466 536 35,000  Level FlightAware UK
Thu 07:58:02 AM 51.0270 -8.0350 297° West 402 463 35,000  Level FlightAware ADS-B
Thu 07:58:39 AM 51.0580 -8.1320 297° West 405 466 35,000  Level FlightAware ADS-B
Thu 07:59:11 AM 51.0850 -8.2190 296° West 406 467 35,000  Level FlightAware ADS-B
Thu 07:59:41 AM 51.1070 -8.2870 297° West 404 465 35,000  Level FlightAware ADS-B
Thu 08:00:23 AM 51.1460 -8.4120 296° West 410 472 35,000  Level FlightAware ADS-B
Thu 08:00:56 AM 51.1740 -8.5000 297° West 412 474 35,000  Level FlightAware ADS-B
Thu 08:01:32 AM 51.2489 -8.6047 297° West 476 548 35,000  Level FlightAware UK
Thu 08:01:32 AM 51.2050 -8.5980 297° West 414 476 35,000  Level FlightAware ADS-B
Thu 08:02:02 AM 51.2732 -8.6866 297° West 476 548 35,000  Level FlightAware UK
Thu 08:02:13 AM 51.2390 -8.7070 297° West 414 476 35,000  Level FlightAware ADS-B
Thu 08:02:48 AM 51.2670 -8.7990 296° West 414 476 35,000  Level FlightAware ADS-B
Thu 08:03:23 AM 51.2930 -8.8840 296° West 415 478 35,000  Level FlightAware ADS-B
Thu 08:03:48 AM 51.3160 -8.9580 296° West 414 476 35,000  Level FlightAware ADS-B
Thu 08:04:23 AM 51.3480 -9.0610 296° West 414 476 35,000  Level FlightAware ADS-B
Thu 08:05:03 AM 51.3800 -9.1660 296° West 414 476 35,000  Level FlightAware ADS-B
Thu 08:05:33 AM 51.4030 -9.2430 296° West 415 478 35,000  Level FlightAware ADS-B
Thu 08:06:18 AM 51.4440 -9.3760 296° West 415 478 35,000  Level FlightAware ADS-B
Thu 08:06:53 AM 51.4710 -9.4660 296° West 415 478 35,000  Level FlightAware ADS-B
Thu 08:07:33 AM 51.5040 -9.5750 296° West 415 478 35,000  Level FlightAware ADS-B
Thu 08:08:08 AM 51.5340 -9.6750 296° West 415 478 35,000  Level FlightAware ADS-B
Thu 08:08:44 AM 51.5670 -9.7850 296° West 414 476 35,000  Level FlightAware ADS-B
Thu 08:09:20 AM 51.5950 -9.8770 296° West 413 475 35,000  Level FlightAware ADS-B
Thu 08:10:00 AM 51.6290 -9.9920 296° West 413 475 35,000  Level FlightAware ADS-B
Thu 08:10:35 AM 51.6570 -10.0860 296° West 412 474 35,000  Level FlightAware ADS-B
Thu 08:11:12 AM 51.6850 -10.1810 295° West 411 473 35,000  Level FlightAware ADS-B
Thu 08:11:45 AM 51.7080 -10.2600 295° West 411 473 35,000  Level FlightAware ADS-B
Thu 08:12:36 AM 51.7560 -10.4210 296° West 408 470 35,000  Level FlightAware ADS-B
Thu 08:13:21 AM 51.7910 -10.5430 295° West 402 463 35,000  Level FlightAware ADS-B
Thu 08:13:51 AM 51.8140 -10.6220 295° West 401 461 35,000  Level FlightAware ADS-B
Thu 08:14:31 AM 51.8460 -10.7320 295° West 401 461 35,000  Level FlightAware ADS-B
Thu 08:15:25 AM 51.8860 -10.8730 295° West 404 465 35,000  Level FlightAware ADS-B
Thu 08:16:02 AM 51.9160 -10.9760 295° West 404 465 35,000  Level FlightAware ADS-B
Thu 08:16:42 AM 51.9490 -11.0940 294° West 405 466 35,000  Level FlightAware ADS-B
Thu 08:17:22 AM 51.9810 -11.2070 295° West 405 466 35,000  Level FlightAware ADS-B
Thu 08:18:06 AM 52.0150 -11.3270 295° West 401 461 35,000  Level FlightAware ADS-B
Thu 08:18:40 AM 52.0420 -11.4230 295° West 403 464 35,000  Level FlightAware ADS-B
Thu 08:19:20 AM 52.0730 -11.5330 295° West 404 465 35,000  Level FlightAware ADS-B
Thu 08:20:02 AM 52.1020 -11.6410 294° West 404 465 35,000  Level FlightAware ADS-B
Thu 08:20:41 AM 52.1340 -11.7550 295° West 405 466 35,000  Level FlightAware ADS-B
Thu 08:21:16 AM 52.1600 -11.8470 295° West 404 465 35,000  Level FlightAware ADS-B
Thu 08:22:03 AM 52.1950 -11.9770 294° West 405 466 35,000  Level FlightAware ADS-B
Thu 08:22:36 AM 52.2210 -12.0730 294° West 409 471 35,000  Level FlightAware ADS-B
Thu 08:23:16 AM 52.2510 -12.1810 294° West 409 471 35,000  Level FlightAware ADS-B
Thu 08:23:51 AM 52.2740 -12.2710 293° West 409 471 35,000  Level FlightAware ADS-B
Thu 08:24:31 AM 52.3070 -12.3940 294° West 410 472 35,000  Level FlightAware ADS-B
Thu 08:25:01 AM 52.3330 -12.4890 294° West 412 474 35,000  Level FlightAware ADS-B
Thu 08:25:39 AM 52.3580 -12.5840 293° West 413 475 35,000  Level FlightAware ADS-B
Thu 08:26:17 AM 52.3820 -12.6770 293° West 413 475 35,000  Level FlightAware ADS-B
Thu 08:26:51 AM 52.4160 -12.8060 293° West 414 476 35,000  Level FlightAware ADS-B
Thu 08:27:39 AM 52.4480 -12.9260 294° West 414 476 35,000  Level FlightAware ADS-B
Thu 08:28:15 AM 52.4710 -13.0150 293° West 414 476 35,000  Level FlightAware ADS-B
Thu 08:28:51 AM 52.4930 -13.1030 292° West 414 476 35,000  Level FlightAware ADS-B
Thu 08:29:28 AM 52.5170 -13.1950 293° West 414 476 35,000  Level FlightAware ADS-B
Thu 08:30:04 AM 52.5400 -13.2830 293° West 414 476 35,000  Level FlightAware ADS-B
Thu 08:30:40 AM 52.5630 -13.3720 293° West 414 476 35,000  Level FlightAware ADS-B
Thu 08:31:16 AM 52.5860 -13.4610 293° West 414 476 35,000  Level FlightAware ADS-B
Thu 08:31:52 AM 52.6090 -13.5500 293° West 414 476 35,000  Level FlightAware ADS-B
Thu 08:32:28 AM 52.6310 -13.6380 292° West 414 476 35,000  Level FlightAware ADS-B
Thu 08:33:06 AM 52.6560 -13.7320 294° West 414 476 35,000  Level FlightAware ADS-B
Thu 08:33:42 AM 52.6780 -13.8210 292° West 414 476 35,000  Level FlightAware ADS-B
Thu 08:34:18 AM 52.7010 -13.9100 293° West 414 476 35,000  Level FlightAware ADS-B
Thu 08:34:52 AM 52.7230 -13.9940 293° West 414 476 35,000  Level FlightAware ADS-B
Thu 08:35:28 AM 52.7460 -14.0840 293° West 414 476 35,000  Level FlightAware ADS-B
Thu 08:36:06 AM 52.7700 -14.1780 293° West 414 476 35,000  Level FlightAware ADS-B
Thu 08:36:42 AM 52.7930 -14.2670 293° West 414 476 35,000  Level FlightAware ADS-B
Thu 08:39:00 AM 52.8558 -14.6989 284° West  Level Estimated
Thu 08:40:00 AM 52.8827 -14.8871 283° West  Level Estimated
Thu 08:41:00 AM 52.9092 -15.0755 283° West  Level Estimated
Thu 08:42:00 AM 52.9353 -15.2633 283° West  Level Estimated
Thu 08:43:00 AM 52.9611 -15.4513 283° West  Level Estimated
Thu 08:44:00 AM 52.9866 -15.6396 283° West  Level Estimated
Thu 08:45:00 AM 53.0119 -15.8280 283° West  Level Estimated
Thu 08:46:00 AM 53.0368 -16.0167 282° West  Level Estimated
Thu 08:47:00 AM 53.0614 -16.2056 282° West  Level Estimated
Thu 08:48:00 AM 53.0858 -16.3947 282° West  Level Estimated
Thu 08:49:00 AM 53.1098 -16.5841 282° West  Level Estimated
Thu 08:50:00 AM 53.1335 -16.7736 282° West  Level Estimated
Thu 08:51:00 AM 53.1570 -16.9634 282° West  Level Estimated
Thu 08:52:00 AM 53.1801 -17.1534 282° West  Level Estimated
Thu 08:53:00 AM 53.2029 -17.3435 281° West  Level Estimated
Thu 08:54:00 AM 53.2254 -17.5339 281° West  Level Estimated
Thu 08:55:00 AM 53.2478 -17.7254 281° West  Level Estimated
Thu 08:56:00 AM 53.2698 -17.9171 281° West  Level Estimated
Thu 08:57:00 AM 53.2915 -18.1090 281° West  Level Estimated
Thu 08:58:00 AM 53.3129 -18.3011 281° West  Level Estimated
Thu 08:59:00 AM 53.3340 -18.4934 280° West  Level Estimated
Thu 09:00:00 AM 53.3548 -18.6859 280° West  Level Estimated
Thu 09:01:00 AM 53.3752 -18.8786 280° West  Level Estimated
Thu 09:02:00 AM 53.3954 -19.0714 280° West  Level Estimated
Thu 09:03:00 AM 53.4152 -19.2645 280° West  Level Estimated
Thu 09:04:00 AM 53.4348 -19.4577 280° West  Level Estimated
Thu 09:05:00 AM 53.4540 -19.6511 280° West  Level Estimated
Thu 09:06:00 AM 53.4729 -19.8446 279° West  Level Estimated
Thu 09:07:00 AM 53.4915 -20.0384 279° West  Level Estimated
Thu 09:07:03 AM 54.0000 -20.0000 274° West 431 496 35,000  Level ETMS Enhanced Traffic Management System
Thu 09:08:00 AM 53.5098 -20.2323 279° West  Level Estimated
Thu 09:09:00 AM 53.5278 -20.4263 279° West  Level Estimated
Thu 09:10:00 AM 53.5456 -20.6221 279° West  Level Estimated
Thu 09:11:00 AM 53.5631 -20.8181 279° West  Level Estimated
Thu 09:12:00 AM 53.5802 -21.0142 278° West  Level Estimated
Thu 09:13:00 AM 54.0567 -21.6296 273° West 431 496 35,000  Level FlightAware Transoceanic
Thu 09:14:00 AM 54.0622 -21.8336 273° West 431 496 35,000  Level FlightAware Transoceanic
Thu 09:15:00 AM 54.0674 -22.0376 272° West 431 496 35,000  Level FlightAware Transoceanic
Thu 09:16:00 AM 54.0723 -22.2417 272° West 431 496 35,000  Level FlightAware Transoceanic
Thu 09:17:00 AM 54.0768 -22.4458 272° West 431 496 35,000  Level FlightAware Transoceanic
Thu 09:18:00 AM 54.0809 -22.6500 272° West 431 496 35,000  Level FlightAware Transoceanic
Thu 09:19:00 AM 54.0847 -22.8542 272° West 431 496 35,000  Level FlightAware Transoceanic
Thu 09:20:00 AM 54.0882 -23.0585 272° West 431 496 35,000  Level FlightAware Transoceanic
Thu 09:21:00 AM 54.0913 -23.2628 271° West 431 496 35,000  Level FlightAware Transoceanic
Thu 09:22:00 AM 54.0941 -23.4671 271° West 431 496 35,000  Level FlightAware Transoceanic
Thu 09:23:00 AM 54.0965 -23.6714 271° West 431 496 35,000  Level FlightAware Transoceanic
Thu 09:24:00 AM 54.0986 -23.8758 271° West 431 496 35,000  Level FlightAware Transoceanic
Thu 09:25:00 AM 54.1003 -24.0802 271° West 431 496 35,000  Level FlightAware Transoceanic
Thu 09:26:00 AM 54.1017 -24.2845 271° West 431 496 35,000  Level FlightAware Transoceanic
Thu 09:27:00 AM 54.1027 -24.4890 270° West 431 496 35,000  Level FlightAware Transoceanic
Thu 09:28:00 AM 54.1034 -24.6934 270° West 431 496 35,000  Level FlightAware Transoceanic
Thu 09:29:00 AM 54.1038 -24.8978 270° West 431 496 35,000  Level FlightAware Transoceanic
Thu 09:30:00 AM 54.1038 -25.1022 270° West 431 496 35,000  Level FlightAware Transoceanic
Thu 09:31:00 AM 54.1034 -25.3066 270° West 431 496 35,000  Level FlightAware Transoceanic
Thu 09:32:00 AM 54.1027 -25.5110 270° West 431 496 35,000  Level FlightAware Transoceanic
Thu 09:33:00 AM 54.1017 -25.7155 269° West 431 496 35,000  Level FlightAware Transoceanic
Thu 09:34:00 AM 54.1003 -25.9198 269° West 431 496 35,000  Level FlightAware Transoceanic
Thu 09:35:00 AM 54.0986 -26.1242 269° West 431 496 35,000  Level FlightAware Transoceanic
Thu 09:36:00 AM 54.0965 -26.3286 269° West 431 496 35,000  Level FlightAware Transoceanic
Thu 09:37:00 AM 54.0941 -26.5329 269° West 431 496 35,000  Level FlightAware Transoceanic
Thu 09:38:00 AM 54.0913 -26.7372 269° West 431 496 35,000  Level FlightAware Transoceanic
Thu 09:39:00 AM 54.0882 -26.9415 268° West 431 496 35,000  Level FlightAware Transoceanic
Thu 09:40:00 AM 54.0847 -27.1458 268° West 431 496 35,000  Level FlightAware Transoceanic
Thu 09:41:00 AM 54.0809 -27.3500 268° West 431 496 35,000  Level FlightAware Transoceanic
Thu 09:42:00 AM 54.0768 -27.5542 268° West 431 496 35,000  Level FlightAware Transoceanic
Thu 09:43:00 AM 54.0723 -27.7583 268° West 431 496 35,000  Level FlightAware Transoceanic
Thu 09:44:00 AM 54.0674 -27.9624 268° West 431 496 35,000  Level FlightAware Transoceanic
Thu 09:45:00 AM 54.0622 -28.1664 267° West 431 496 35,000  Level FlightAware Transoceanic
Thu 09:46:00 AM 54.0567 -28.3704 267° West 431 496 35,000  Level FlightAware Transoceanic
Thu 09:47:00 AM 54.0508 -28.5743 267° West 431 496 35,000  Level FlightAware Transoceanic
Thu 09:48:00 AM 54.0446 -28.7782 267° West 431 496 35,000  Level FlightAware Transoceanic
Thu 09:49:00 AM 54.0380 -28.9820 267° West 431 496 35,000  Level FlightAware Transoceanic
Thu 09:50:00 AM 54.0311 -29.1858 267° West 431 496 35,000  Level FlightAware Transoceanic
Thu 09:51:00 AM 54.0238 -29.3894 266° West 431 496 35,000  Level FlightAware Transoceanic
Thu 09:52:00 AM 54.0162 -29.5930 266° West 431 496 35,000  Level FlightAware Transoceanic
Thu 09:53:00 AM 54.0083 -29.7966 266° West 431 496 35,000  Level FlightAware Transoceanic
Thu 09:54:00 AM 54.0001 -29.9964 266° West  Level FlightAware Approximate
Thu 09:54:00 AM 54.0000 -30.0000 265° West 425 489 35,000  Level ETMS Enhanced Traffic Management System
Thu 09:55:00 AM 53.9917 -30.1961 266° West  Level FlightAware Approximate
Thu 09:56:00 AM 53.9890 -30.1920 265° West  Level FlightAware Approximate
Thu 09:57:00 AM 53.9772 -30.3908 264° West  Level FlightAware Approximate
Thu 09:58:00 AM 53.9652 -30.5894 264° West  Level FlightAware Approximate
Thu 09:59:00 AM 53.9528 -30.7879 264° West  Level FlightAware Approximate
Thu 10:00:00 AM 53.9127 -31.3979 263° West 425 489 35,000  Level FlightAware Transoceanic
Thu 10:01:00 AM 53.8988 -31.5971 263° West 425 489 35,000  Level FlightAware Transoceanic
Thu 10:02:00 AM 53.8847 -31.7962 263° West 425 489 35,000  Level FlightAware Transoceanic
Thu 10:03:00 AM 53.8703 -31.9951 263° West 425 489 35,000  Level FlightAware Transoceanic
Thu 10:04:00 AM 53.8555 -32.1940 263° West 425 489 35,000  Level FlightAware Transoceanic
Thu 10:05:00 AM 53.8404 -32.3926 263° West 425 489 35,000  Level FlightAware Transoceanic
Thu 10:06:00 AM 53.8249 -32.5911 262° West 425 489 35,000  Level FlightAware Transoceanic
Thu 10:07:00 AM 53.8091 -32.7895 262° West 425 489 35,000  Level FlightAware Transoceanic
Thu 10:08:00 AM 53.7930 -32.9877 262° West 425 489 35,000  Level FlightAware Transoceanic
Thu 10:09:00 AM 53.7766 -33.1857 262° West 425 489 35,000  Level FlightAware Transoceanic
Thu 10:10:00 AM 53.7599 -33.3837 262° West 425 489 35,000  Level FlightAware Transoceanic
Thu 10:11:00 AM 53.7428 -33.5814 262° West 425 489 35,000  Level FlightAware Transoceanic
Thu 10:12:00 AM 53.7254 -33.7790 261° West 425 489 35,000  Level FlightAware Transoceanic
Thu 10:13:00 AM 53.7077 -33.9764 261° West 425 489 35,000  Level FlightAware Transoceanic
Thu 10:14:00 AM 53.6896 -34.1736 261° West 425 489 35,000  Level FlightAware Transoceanic
Thu 10:15:00 AM 53.6712 -34.3707 261° West 425 489 35,000  Level FlightAware Transoceanic
Thu 10:16:00 AM 53.6525 -34.5676 261° West 425 489 35,000  Level FlightAware Transoceanic
Thu 10:17:00 AM 53.6335 -34.7644 261° West 425 489 35,000  Level FlightAware Transoceanic
Thu 10:18:00 AM 53.6142 -34.9609 260° West 425 489 35,000  Level FlightAware Transoceanic
Thu 10:19:00 AM 53.5945 -35.1573 260° West 425 489 35,000  Level FlightAware Transoceanic
Thu 10:20:00 AM 53.5745 -35.3535 260° West 425 489 35,000  Level FlightAware Transoceanic
Thu 10:21:00 AM 53.5542 -35.5495 260° West 425 489 35,000  Level FlightAware Transoceanic
Thu 10:22:00 AM 53.5336 -35.7453 260° West 425 489 35,000  Level FlightAware Transoceanic
Thu 10:23:00 AM 53.5126 -35.9409 260° West 425 489 35,000  Level FlightAware Transoceanic
Thu 10:24:00 AM 53.4914 -36.1363 260° West 425 489 35,000  Level FlightAware Transoceanic
Thu 10:25:00 AM 53.4698 -36.3315 259° West 425 489 35,000  Level FlightAware Transoceanic
Thu 10:26:00 AM 53.4479 -36.5266 259° West 425 489 35,000  Level FlightAware Transoceanic
Thu 10:27:00 AM 53.4257 -36.7214 259° West 425 489 35,000  Level FlightAware Transoceanic
Thu 10:28:00 AM 53.4031 -36.9160 259° West 425 489 35,000  Level FlightAware Transoceanic
Thu 10:29:00 AM 53.3803 -37.1104 259° West 425 489 35,000  Level FlightAware Transoceanic
Thu 10:30:00 AM 53.3571 -37.3046 259° West 425 489 35,000  Level FlightAware Transoceanic
Thu 10:31:00 AM 53.3336 -37.4986 258° West 425 489 35,000  Level FlightAware Transoceanic
Thu 10:32:00 AM 53.3098 -37.6924 258° West 425 489 35,000  Level FlightAware Transoceanic
Thu 10:33:00 AM 53.2857 -37.8859 258° West 425 489 35,000  Level FlightAware Transoceanic
Thu 10:34:00 AM 53.2613 -38.0793 258° West 425 489 35,000  Level FlightAware Transoceanic
Thu 10:35:00 AM 53.2366 -38.2724 258° West 425 489 35,000  Level FlightAware Transoceanic
Thu 10:36:00 AM 53.2115 -38.4652 258° West 425 489 35,000  Level FlightAware Transoceanic
Thu 10:37:00 AM 53.1862 -38.6579 258° West 425 489 35,000  Level FlightAware Transoceanic
Thu 10:38:00 AM 53.1605 -38.8503 257° West 425 489 35,000  Level FlightAware Transoceanic
Thu 10:39:00 AM 53.1345 -39.0425 257° West 425 489 35,000  Level FlightAware Transoceanic
Thu 10:40:00 AM 53.1082 -39.2345 257° West 425 489 35,000  Level FlightAware Transoceanic
Thu 10:41:00 AM 53.0816 -39.4262 257° West 425 489 35,000  Level FlightAware Transoceanic
Thu 10:42:00 AM 53.0547 -39.6177 257° West 425 489 35,000  Level FlightAware Transoceanic
Thu 10:43:00 AM 53.0275 -39.8090 257° West 425 489 35,000  Level FlightAware Transoceanic
Thu 10:44:00 AM 53.0002 -39.9989 257° West  Level FlightAware Approximate
Thu 10:45:00 AM 52.9718 -40.1882 256° West  Level FlightAware Approximate
Thu 10:46:00 AM 52.9566 -40.1787 248° West  Level FlightAware Approximate
Thu 10:46:00 AM 53.0000 -40.0000 248° West 435 501 35,000  Level ETMS Enhanced Traffic Management System
Thu 10:47:00 AM 52.9124 -40.3593 248° West  Level FlightAware Approximate
Thu 10:48:00 AM 52.8680 -40.5395 248° West  Level FlightAware Approximate
Thu 10:49:00 AM 52.8232 -40.7193 248° West  Level FlightAware Approximate
Thu 10:50:00 AM 52.7782 -40.8988 248° West  Level FlightAware Approximate
Thu 10:51:00 AM 52.7329 -41.0778 247° West  Level FlightAware Approximate
Thu 10:52:00 AM 52.6317 -41.4826 247° West 435 501 35,000  Level FlightAware Transoceanic
Thu 10:53:00 AM 52.5844 -41.6661 247° West 435 501 35,000  Level FlightAware Transoceanic
Thu 10:54:00 AM 52.5368 -41.8493 247° West 435 501 35,000  Level FlightAware Transoceanic
Thu 10:55:00 AM 52.4889 -42.0320 247° West 435 501 35,000  Level FlightAware Transoceanic
Thu 10:56:00 AM 52.4407 -42.2144 246° West 435 501 35,000  Level FlightAware Transoceanic
Thu 10:57:00 AM 52.3923 -42.3963 246° West 435 501 35,000  Level FlightAware Transoceanic
Thu 10:58:00 AM 52.3435 -42.5779 246° West 435 501 35,000  Level FlightAware Transoceanic
Thu 10:59:00 AM 52.2945 -42.7590 246° West 435 501 35,000  Level FlightAware Transoceanic
Thu 11:00:00 AM 52.2452 -42.9398 246° West 435 501 35,000  Level FlightAware Transoceanic
Thu 11:01:00 AM 52.1957 -43.1201 246° West 435 501 35,000  Level FlightAware Transoceanic
Thu 11:02:00 AM 52.1458 -43.3000 246° West 435 501 35,000  Level FlightAware Transoceanic
Thu 11:03:00 AM 52.0957 -43.4796 245° Southwest 435 501 35,000  Level FlightAware Transoceanic
Thu 11:04:00 AM 52.0453 -43.6587 245° Southwest 435 501 35,000  Level FlightAware Transoceanic
Thu 11:05:00 AM 51.9947 -43.8375 245° Southwest 435 501 35,000  Level FlightAware Transoceanic
Thu 11:06:00 AM 51.9438 -44.0158 245° Southwest 435 501 35,000  Level FlightAware Transoceanic
Thu 11:07:00 AM 51.8926 -44.1937 245° Southwest 435 501 35,000  Level FlightAware Transoceanic
Thu 11:08:00 AM 51.8411 -44.3712 245° Southwest 435 501 35,000  Level FlightAware Transoceanic
Thu 11:09:00 AM 51.7894 -44.5483 245° Southwest 435 501 35,000  Level FlightAware Transoceanic
Thu 11:10:00 AM 51.7374 -44.7250 245° Southwest 435 501 35,000  Level FlightAware Transoceanic
Thu 11:11:00 AM 51.6851 -44.9013 244° Southwest 435 501 35,000  Level FlightAware Transoceanic
Thu 11:12:00 AM 51.6326 -45.0772 244° Southwest 435 501 35,000  Level FlightAware Transoceanic
Thu 11:13:00 AM 51.5798 -45.2527 244° Southwest 435 501 35,000  Level FlightAware Transoceanic
Thu 11:14:00 AM 51.5268 -45.4278 244° Southwest 435 501 35,000  Level FlightAware Transoceanic
Thu 11:15:00 AM 51.4735 -45.6025 244° Southwest 435 501 35,000  Level FlightAware Transoceanic
Thu 11:16:00 AM 51.4199 -45.7767 244° Southwest 435 501 35,000  Level FlightAware Transoceanic
Thu 11:17:00 AM 51.3661 -45.9506 244° Southwest 435 501 35,000  Level FlightAware Transoceanic
Thu 11:18:00 AM 51.3120 -46.1240 243° Southwest 435 501 35,000  Level FlightAware Transoceanic
Thu 11:19:00 AM 51.2577 -46.2970 243° Southwest 435 501 35,000  Level FlightAware Transoceanic
Thu 11:20:00 AM 51.2031 -46.4696 243° Southwest 435 501 35,000  Level FlightAware Transoceanic
Thu 11:21:00 AM 51.1483 -46.6418 243° Southwest 435 501 35,000  Level FlightAware Transoceanic
Thu 11:22:00 AM 51.0932 -46.8136 243° Southwest 435 501 35,000  Level FlightAware Transoceanic
Thu 11:23:00 AM 51.0379 -46.9850 243° Southwest 435 501 35,000  Level FlightAware Transoceanic
Thu 11:24:00 AM 50.9823 -47.1560 243° Southwest 435 501 35,000  Level FlightAware Transoceanic
Thu 11:25:00 AM 50.9264 -47.3266 242° Southwest 435 501 35,000  Level FlightAware Transoceanic
Thu 11:26:00 AM 50.8703 -47.4967 242° Southwest 435 501 35,000  Level FlightAware Transoceanic
Thu 11:27:00 AM 50.8140 -47.6665 242° Southwest 435 501 35,000  Level FlightAware Transoceanic
Thu 11:28:00 AM 50.7574 -47.8358 242° Southwest 435 501 35,000  Level FlightAware Transoceanic
Thu 11:29:00 AM 50.7006 -48.0048 242° Southwest 435 501 35,000  Level FlightAware Transoceanic
Thu 11:30:00 AM 50.6435 -48.1733 242° Southwest 435 501 35,000  Level FlightAware Transoceanic
Thu 11:31:00 AM 50.5862 -48.3414 242° Southwest 435 501 35,000  Level FlightAware Transoceanic
Thu 11:32:00 AM 50.5287 -48.5091 242° Southwest 435 501 35,000  Level FlightAware Transoceanic
Thu 11:33:00 AM 50.4709 -48.6764 241° Southwest 435 501 35,000  Level FlightAware Transoceanic
Thu 11:34:00 AM 50.4128 -48.8433 241° Southwest 435 501 35,000  Level FlightAware Transoceanic
Thu 11:35:00 AM 50.3546 -49.0097 241° Southwest 435 501 35,000  Level FlightAware Transoceanic
Thu 11:36:00 AM 50.2961 -49.1758 241° Southwest 435 501 35,000  Level FlightAware Transoceanic
Thu 11:37:00 AM 50.2373 -49.3415 241° Southwest 435 501 35,000  Level FlightAware Transoceanic
Thu 11:38:00 AM 50.1783 -49.5067 241° Southwest 435 501 35,000  Level FlightAware Transoceanic
Thu 11:39:00 AM 50.1191 -49.6716 241° Southwest 435 501 35,000  Level FlightAware Transoceanic
Thu 11:40:00 AM 50.0597 -49.8360 241° Southwest 435 501 35,000  Level FlightAware Transoceanic
Thu 11:41:00 AM 50.0018 -49.9951 241° Southwest  Level FlightAware Approximate
Thu 11:42:00 AM 49.9436 -50.1537 240° Southwest  Level FlightAware Approximate
Thu 11:43:00 AM 49.9638 -50.1624 251° West  Level FlightAware Approximate
Thu 11:43:00 AM 50.0000 -50.0000 251° West 400 460 35,000  Level ETMS Enhanced Traffic Management System
Thu 11:44:00 AM 49.9250 -50.3348 251° West  Level FlightAware Approximate
Thu 11:45:00 AM 49.8861 -50.5068 251° West  Level FlightAware Approximate
Thu 11:46:00 AM 49.8476 -50.6750 251° West  Level FlightAware Approximate
Thu 11:47:00 AM 49.8090 -50.8429 250° West  Level FlightAware Approximate
Thu 11:48:00 AM 49.7701 -51.0106 250° West  Level FlightAware Approximate
Thu 11:49:00 AM 49.7423 -51.1425 250° West 400 460 35,000  Level FlightAware Transoceanic
Thu 11:49:00 AM 49.7070 -51.0930 250° West 433 498 35,000  Level FlightAware ADS-B
Thu 11:49:35 AM 49.6820 -51.1990 250° West 433 498 35,000  Level FlightAware ADS-B
Thu 11:50:08 AM 49.6640 -51.2980 254° West 432 497 35,000  Level FlightAware ADS-B
Thu 11:50:53 AM 49.6480 -51.4350 260° West 433 498 35,000  Level FlightAware ADS-B
Thu 11:51:28 AM 49.6350 -51.5390 259° West 432 497 35,000  Level FlightAware ADS-B
Thu 11:51:58 AM 49.6250 -51.6300 260° West 432 497 35,000  Level FlightAware ADS-B
Thu 11:52:35 AM 49.6130 -51.7440 261° West 433 498 35,000  Level FlightAware ADS-B
Thu 11:53:14 AM 49.6000 -51.8610 260° West 434 499 35,000 225 Level FlightAware ADS-B
Thu 11:53:55 AM 49.5860 -51.9820 260° West 434 499 35,300 507 Climbing FlightAware ADS-B
Thu 11:54:25 AM 49.5760 -52.0730 260° West 431 496 35,600 600 Climbing FlightAware ADS-B
Thu 11:55:05 AM 49.5620 -52.1970 260° West 428 493 36,000 320 Climbing FlightAware ADS-B
Thu 11:55:40 AM 49.5500 -52.3020 260° West 428 493 36,000  Level FlightAware ADS-B
Thu 11:56:15 AM 49.5380 -52.4040 260° West 428 493 36,000  Level FlightAware ADS-B
Thu 11:56:45 AM 49.5280 -52.4960 261° West 423 487 36,000  Level FlightAware ADS-B
Thu 11:57:25 AM 49.5140 -52.6120 260° West 420 483 36,000  Level FlightAware ADS-B
Thu 11:58:05 AM 49.5000 -52.7290 260° West 419 482 36,000  Level FlightAware ADS-B
Thu 11:58:40 AM 49.4870 -52.8320 259° West 418 481 36,000  Level FlightAware ADS-B
Thu 11:59:15 AM 49.4750 -52.9350 260° West 417 480 36,000  Level FlightAware ADS-B
Thu 11:59:50 AM 49.4640 -53.0310 260° West 419 482 36,000  Level FlightAware ADS-B
Thu 12:00:25 PM 49.4510 -53.1360 259° West 420 483 36,000  Level FlightAware ADS-B
Thu 12:01:00 PM 49.4380 -53.2430 259° West 422 486 36,000  Level FlightAware ADS-B
Thu 12:01:35 PM 49.4260 -53.3420 259° West 422 486 36,000  Level FlightAware ADS-B
Thu 12:02:10 PM 49.4140 -53.4470 260° West 423 487 36,000  Level FlightAware ADS-B
Thu 12:02:45 PM 49.4010 -53.5510 259° West 423 487 36,000  Level FlightAware ADS-B
Thu 12:03:20 PM 49.3880 -53.6520 259° West 423 487 36,000  Level FlightAware ADS-B
Thu 12:03:55 PM 49.3750 -53.7570 259° West 424 488 36,000  Level FlightAware ADS-B
Thu 12:04:35 PM 49.3610 -53.8740 260° West 424 488 36,000  Level FlightAware ADS-B
Thu 12:05:05 PM 49.3490 -53.9640 258° West 424 488 36,000  Level FlightAware ADS-B
Thu 12:05:40 PM 49.3360 -54.0670 259° West 425 489 36,000  Level FlightAware ADS-B
Thu 12:06:15 PM 49.3230 -54.1700 259° West 426 490 36,000  Level FlightAware ADS-B
Thu 12:06:50 PM 49.3110 -54.2710 260° West 426 490 36,000  Level FlightAware ADS-B
Thu 12:07:25 PM 49.2970 -54.3770 259° West 426 490 36,000  Level FlightAware ADS-B
Thu 12:08:10 PM 49.2800 -54.5090 259° West 424 488 36,000  Level FlightAware ADS-B
Thu 12:08:40 PM 49.2690 -54.5970 259° West 426 490 36,000  Level FlightAware ADS-B
Thu 12:09:25 PM 49.2510 -54.7280 258° West 425 489 36,000  Level FlightAware ADS-B
Thu 12:10:01 PM 49.2370 -54.8330 258° West 425 489 36,000  Level FlightAware ADS-B
Thu 12:10:35 PM 49.2230 -54.9360 258° West 423 487 36,000  Level FlightAware ADS-B
Thu 12:11:10 PM 49.2090 -55.0380 258° West 423 487 36,000  Level FlightAware ADS-B
Thu 12:11:45 PM 49.1950 -55.1410 258° West 422 486 36,000  Level FlightAware ADS-B
Thu 12:12:20 PM 49.1820 -55.2420 259° West 422 486 36,000  Level FlightAware ADS-B
Thu 12:12:55 PM 49.1680 -55.3420 258° West 421 484 36,000  Level FlightAware ADS-B
Thu 12:13:30 PM 49.1540 -55.4470 259° West 422 486 36,000  Level FlightAware ADS-B
Thu 12:14:05 PM 49.1390 -55.5480 257° West 419 482 36,000  Level FlightAware ADS-B
Thu 12:14:40 PM 49.1260 -55.6470 259° West 418 481 36,000  Level FlightAware ADS-B
Thu 12:15:15 PM 49.1120 -55.7420 257° West 418 481 36,000  Level FlightAware ADS-B
Thu 12:15:50 PM 49.0970 -55.8490 258° West 416 479 36,000  Level FlightAware ADS-B
Thu 12:16:25 PM 49.0830 -55.9490 258° West 415 478 36,000  Level FlightAware ADS-B
Thu 12:17:01 PM 49.0680 -56.0490 257° West 414 476 36,000  Level FlightAware ADS-B
Thu 12:17:35 PM 49.0540 -56.1480 258° West 414 476 36,000  Level FlightAware ADS-B
Thu 12:18:10 PM 49.0390 -56.2480 257° West 414 476 36,000  Level FlightAware ADS-B
Thu 12:18:45 PM 49.0250 -56.3480 258° West 414 476 36,000  Level FlightAware ADS-B
Thu 12:19:20 PM 49.0100 -56.4470 257° West 412 474 36,000  Level FlightAware ADS-B
Thu 12:20:01 PM 48.9940 -56.5580 258° West 412 474 36,000  Level FlightAware ADS-B
Thu 12:20:40 PM 48.9770 -56.6710 257° West 410 472 36,000  Level FlightAware ADS-B
Thu 12:21:10 PM 48.9650 -56.7500 257° West 412 474 36,000  Level FlightAware ADS-B
Thu 12:21:45 PM 48.9500 -56.8500 257° West 413 475 36,000  Level FlightAware ADS-B
Thu 12:22:25 PM 48.9320 -56.9670 257° West 413 475 36,000  Level FlightAware ADS-B
Thu 12:22:55 PM 48.9190 -57.0530 257° West 412 474 36,000  Level FlightAware ADS-B
Thu 12:23:35 PM 48.9020 -57.1630 257° West 409 471 36,000  Level FlightAware ADS-B
Thu 12:24:10 PM 48.8860 -57.2610 256° West 411 473 36,000  Level FlightAware ADS-B
Thu 12:24:40 PM 48.8730 -57.3460 257° West 411 473 36,000  Level FlightAware ADS-B
Thu 12:25:15 PM 48.8570 -57.4430 256° West 412 474 36,000  Level FlightAware ADS-B
Thu 12:25:55 PM 48.8400 -57.5550 257° West 409 471 36,000  Level FlightAware ADS-B
Thu 12:26:25 PM 48.8260 -57.6400 256° West 411 473 36,000  Level FlightAware ADS-B
Thu 12:27:02 PM 48.8100 -57.7380 256° West 410 472 36,000  Level FlightAware ADS-B
Thu 12:27:35 PM 48.7940 -57.8350 256° West 407 468 36,000  Level FlightAware ADS-B
Thu 12:28:10 PM 48.7780 -57.9300 256° West 407 468 36,000  Level FlightAware ADS-B
Thu 12:28:45 PM 48.7620 -58.0270 256° West 405 466 36,000  Level FlightAware ADS-B
Thu 12:29:25 PM 48.7440 -58.1370 256° West 404 465 36,000  Level FlightAware ADS-B
Thu 12:30:11 PM 48.7240 -58.2510 255° West 404 465 36,000  Level FlightAware ADS-B
Thu 12:30:45 PM 48.7080 -58.3490 256° West 403 464 36,000  Level FlightAware ADS-B
Thu 12:31:25 PM 48.6890 -58.4640 256° West 407 468 36,000  Level FlightAware ADS-B
Thu 12:31:55 PM 48.6770 -58.5360 256° West 408 470 36,000  Level FlightAware ADS-B
Thu 12:32:36 PM 48.6570 -58.6510 255° West 410 472 36,000  Level FlightAware ADS-B
Thu 12:33:15 PM 48.6370 -58.7700 256° West 413 475 36,000  Level FlightAware ADS-B
Thu 12:33:54 PM 48.6200 -58.8620 254° West 413 475 36,000  Level FlightAware ADS-B
Thu 12:34:25 PM 48.6040 -58.9600 256° West 413 475 36,000  Level FlightAware ADS-B
Thu 12:35:00 PM 48.5860 -59.0610 255° West 415 478 36,000  Level FlightAware ADS-B
Thu 12:35:35 PM 48.5700 -59.1490 255° West 416 479 36,000  Level FlightAware ADS-B
Thu 12:36:05 PM 48.5550 -59.2350 255° West 417 480 36,000  Level FlightAware ADS-B
Thu 12:36:45 PM 48.5330 -59.3560 255° West 419 482 36,000  Level FlightAware ADS-B
Thu 12:37:17 PM 48.5180 -59.4350 254° West 419 482 36,000  Level FlightAware ADS-B
Thu 12:37:57 PM 48.4990 -59.5410 255° West 421 484 36,000  Level FlightAware ADS-B
Thu 12:38:30 PM 48.4800 -59.6450 255° West 422 486 36,000  Level FlightAware ADS-B
Thu 12:39:13 PM 48.4580 -59.7610 254° West 422 486 36,000  Level FlightAware ADS-B
Thu 12:39:47 PM 48.4430 -59.8420 254° West 422 486 36,000  Level FlightAware ADS-B
Thu 12:40:24 PM 48.4260 -59.9310 254° West 422 486 36,000  Level FlightAware ADS-B
Thu 12:41:00 PM 48.4020 -60.0680 255° West 421 484 36,000  Level FlightAware ADS-B
Thu 12:41:37 PM 48.3840 -60.1580 253° West 421 484 36,000  Level FlightAware ADS-B
Thu 12:42:14 PM 48.3680 -60.2470 255° West 421 484 36,000  Level FlightAware ADS-B
Thu 12:42:48 PM 48.3520 -60.3280 253° West 421 484 36,000  Level FlightAware ADS-B
Thu 12:43:25 PM 48.3350 -60.4170 254° West 421 484 36,000  Level FlightAware ADS-B
Thu 12:44:00 PM 48.3190 -60.5000 254° West 421 484 36,000  Level FlightAware ADS-B
Thu 12:44:35 PM 48.3030 -60.5840 254° West 421 484 36,000  Level FlightAware ADS-B
Thu 12:45:09 PM 48.2880 -60.6660 255° West 421 484 36,000  Level FlightAware ADS-B
Thu 12:45:45 PM 48.2710 -60.7520 253° West 421 484 36,000  Level FlightAware ADS-B
Thu 12:46:21 PM 48.2550 -60.8380 254° West 421 484 36,000  Level FlightAware ADS-B
Thu 12:46:57 PM 48.2380 -60.9240 253° West 421 484 36,000  Level FlightAware ADS-B
Thu 12:47:33 PM 48.2220 -61.0100 254° West 421 484 36,000  Level FlightAware ADS-B
Thu 12:48:09 PM 48.2050 -61.0960 254° West 421 484 36,000  Level FlightAware ADS-B
Thu 12:48:55 PM 48.1840 -61.2060 254° West 421 484 36,000  Level FlightAware ADS-B
Thu 12:49:33 PM 48.1670 -61.2960 254° West 421 484 36,000  Level FlightAware ADS-B
Thu 12:50:09 PM 48.1510 -61.3820 254° West 421 484 36,000  Level FlightAware ADS-B
Thu 12:50:45 PM 48.1340 -61.4680 254° West 421 484 36,000  Level FlightAware ADS-B
Thu 12:51:42 PM 48.1000 -61.7833 254° West 410 472 36,000  Level Gander Center
Thu 12:52:42 PM 48.0667 -61.9500 253° West 410 472 36,000  Level Gander Center
Thu 12:53:51 PM 48.0167 -62.1500 250° West 410 472 36,000  Level Moncton Center
Thu 12:54:51 PM 47.9833 -62.3000 252° West 420 483 36,000  Level Moncton Center
Thu 12:55:51 PM 47.9500 -62.4500 252° West 420 483 36,000  Level Moncton Center
Thu 12:56:51 PM 47.9000 -62.6167 246° West 420 483 36,000  Level Moncton Center
Thu 12:57:51 PM 47.8667 -62.8000 255° West 420 483 36,000  Level Moncton Center
Thu 12:58:51 PM 47.8333 -62.9500 252° West 420 483 36,000  Level Moncton Center
Thu 12:59:51 PM 47.8167 -63.1333 262° West 420 483 36,000  Level Moncton Center
Thu 01:00:51 PM 47.7667 -63.3000 246° West 420 483 36,000  Level Moncton Center
Thu 01:01:51 PM 47.7333 -63.4500 252° West 430 495 36,000  Level Moncton Center
Thu 01:02:51 PM 47.7000 -63.6333 255° West 420 483 36,000  Level Moncton Center
Thu 01:03:51 PM 47.6500 -63.8000 246° West 430 495 36,000  Level Moncton Center
Thu 01:04:51 PM 47.6167 -63.9667 254° West 430 495 36,000  Level Moncton Center
Thu 01:05:51 PM 47.5833 -64.1167 252° West 430 495 36,000  Level Moncton Center
Thu 01:06:51 PM 47.5500 -64.3000 255° West 430 495 36,000  Level Moncton Center
Thu 01:07:51 PM 47.5000 -64.4667 246° West 430 495 36,000  Level Moncton Center
Thu 01:08:51 PM 47.4667 -64.6167 252° West 420 483 36,000  Level Moncton Center
Thu 01:09:51 PM 47.4333 -64.8000 255° West 420 483 36,000  Level Moncton Center
Thu 01:10:51 PM 47.4000 -64.9667 254° West 420 483 36,000  Level Moncton Center
Thu 01:11:51 PM 47.3667 -65.1333 254° West 420 483 36,000  Level Moncton Center
Thu 01:12:51 PM 47.3333 -65.2833 252° West 420 483 36,000 -50 Level Moncton Center
Thu 01:13:51 PM 47.3000 -65.4667 255° West 420 483 35,900 -400 Descending Moncton Center
Thu 01:14:51 PM 47.2500 -65.6333 246° West 430 495 35,200 -450 Descending Moncton Center
Thu 01:15:51 PM 47.2000 -65.8000 246° West 430 495 35,000 -100 Descending Moncton Center
Thu 01:16:51 PM 47.1667 -65.9500 252° West 420 483 35,000  Level Moncton Center
Thu 01:17:51 PM 47.1333 -66.1167 254° West 430 495 35,000  Level Moncton Center
Thu 01:18:51 PM 47.1000 -66.2833 254° West 430 495 35,000  Level Moncton Center
Thu 01:19:51 PM 47.0667 -66.4667 255° West 430 495 35,000  Level Moncton Center
Thu 01:20:51 PM 47.0333 -66.6333 254° West 430 495 35,000  Level Moncton Center
Thu 01:21:51 PM 46.9667 -66.7833 237° Southwest 430 495 35,000  Level Moncton Center
Thu 01:22:51 PM 46.9333 -66.9500 254° West 430 495 35,000  Level Moncton Center
Thu 01:28:35 PM 46.6510 -67.9420 254° West 35,000  Level FlightAware ADS-B
Thu 01:29:15 PM 46.6250 -68.0480 250° West 422 486 35,000  Level FlightAware ADS-B
Thu 01:29:50 PM 46.6010 -68.1430 250° West 422 486 35,000  Level FlightAware ADS-B
Thu 01:30:25 PM 46.5790 -68.2280 249° West 419 482 35,000  Level FlightAware ADS-B
Thu 01:30:55 PM 46.5580 -68.3130 250° West 420 483 35,000  Level FlightAware ADS-B
Thu 01:31:35 PM 46.5310 -68.4190 250° West 420 483 35,000  Level FlightAware ADS-B
Thu 01:32:10 PM 46.5080 -68.5120 250° West 422 486 35,000  Level FlightAware ADS-B
Thu 01:32:40 PM 46.4870 -68.5960 250° West 423 487 35,000  Level FlightAware ADS-B
Thu 01:33:26 PM 46.4550 -68.7200 250° West 425 489 35,000  Level FlightAware ADS-B
Thu 01:34:01 PM 46.4310 -68.8110 249° West 423 487 35,000  Level FlightAware ADS-B
Thu 01:34:36 PM 46.4070 -68.9050 250° West 423 487 35,000  Level FlightAware ADS-B
Thu 01:35:11 PM 46.3830 -68.9980 250° West 423 487 35,000  Level FlightAware ADS-B
Thu 01:35:46 PM 46.3590 -69.0890 249° West 422 486 35,000  Level FlightAware ADS-B
Thu 01:36:16 PM 46.3390 -69.1680 250° West 422 486 35,000 171 Level FlightAware ADS-B
Thu 01:36:56 PM 46.3110 -69.2740 249° West 424 488 35,200 480 Climbing FlightAware ADS-B
Thu 01:37:31 PM 46.2860 -69.3660 249° West 425 489 35,600 686 Climbing FlightAware ADS-B
Thu 01:38:06 PM 46.2620 -69.4580 249° West 424 488 36,000 343 Climbing FlightAware ADS-B
Thu 01:38:41 PM 46.2380 -69.5490 249° West 426 490 36,000  Level FlightAware ADS-B
Thu 01:39:16 PM 46.2130 -69.6430 249° West 426 490 36,000 -429 Level FlightAware ADS-B
Thu 01:39:51 PM 46.1880 -69.7350 249° West 426 490 35,500 -1,114 Descending FlightAware ADS-B
Thu 01:40:26 PM 46.1630 -69.8280 249° West 430 495 34,700 -1,286 Descending FlightAware ADS-B
Thu 01:41:01 PM 46.1380 -69.9210 249° West 437 503 34,000 -600 Descending FlightAware ADS-B
Thu 01:41:36 PM 46.1130 -70.0160 249° West 438 504 34,000  Level FlightAware ADS-B
Thu 01:42:11 PM 46.0870 -70.1100 248° West 431 496 34,000  Level FlightAware ADS-B
Thu 01:42:46 PM 46.0620 -70.2040 249° West 431 496 34,000  Level FlightAware ADS-B
Thu 01:43:21 PM 46.0360 -70.2960 248° West 430 495 34,000  Level FlightAware ADS-B
Thu 01:43:56 PM 46.0110 -70.3880 249° West 429 494 34,000  Level FlightAware ADS-B
Thu 01:44:31 PM 45.9850 -70.4820 248° West 428 493 34,000  Level FlightAware ADS-B
Thu 01:45:06 PM 45.9600 -70.5730 248° West 428 493 34,000  Level FlightAware ADS-B
Thu 01:45:41 PM 45.9340 -70.6650 248° West 428 493 34,000  Level FlightAware ADS-B
Thu 01:46:16 PM 45.9090 -70.7570 249° West 430 495 34,000  Level FlightAware ADS-B
Thu 01:46:51 PM 45.8830 -70.8480 248° West 430 495 34,000  Level FlightAware ADS-B
Thu 01:47:26 PM 45.8650 -70.9450 255° West 429 494 34,000  Level FlightAware ADS-B
Thu 01:48:01 PM 45.8570 -71.0420 263° West 429 494 34,000 -86 Level FlightAware ADS-B
Thu 01:48:36 PM 45.8480 -71.1410 263° West 427 491 33,900 -686 Descending FlightAware ADS-B
Thu 01:49:11 PM 45.8400 -71.2390 263° West 429 494 33,200 -1,286 Descending FlightAware ADS-B
Thu 01:49:46 PM 45.8310 -71.3380 263° West 432 497 32,400 -1,105 Descending FlightAware ADS-B
Thu 01:50:27 PM 45.8210 -71.4510 263° West 429 494 31,800 -1,040 Descending FlightAware ADS-B
Thu 01:51:01 PM 45.8130 -71.5500 263° West 423 487 31,100 -1,826 Descending FlightAware ADS-B
Thu 01:51:36 PM 45.8040 -71.6450 262° West 415 478 29,700 -2,400 Descending FlightAware ADS-B
Thu 01:52:11 PM 45.7950 -71.7400 262° West 408 470 28,300 -2,400 Descending FlightAware ADS-B
Thu 01:52:51 PM 45.7860 -71.8460 263° West 405 466 26,700 -2,400 Descending FlightAware ADS-B
Thu 01:53:21 PM 45.7790 -71.9250 263° West 405 466 25,500 -2,400 Descending FlightAware ADS-B
Thu 01:53:51 PM 45.7710 -72.0030 262° West 402 463 24,300 -2,400 Descending FlightAware ADS-B
Thu 01:54:31 PM 45.7610 -72.1090 262° West 399 459 22,700 -2,325 Descending FlightAware ADS-B
Thu 01:55:11 PM 45.7520 -72.2120 263° West 388 447 21,200 -2,314 Descending FlightAware ADS-B
Thu 01:55:41 PM 45.7450 -72.2870 262° West 381 438 20,000 -2,215 Descending FlightAware ADS-B
Thu 01:56:16 PM 45.7370 -72.3730 262° West 373 429 18,800 -2,057 Descending FlightAware ADS-B
Thu 01:56:51 PM 45.7290 -72.4560 262° West 365 420 17,600 -2,160 Descending FlightAware ADS-B
Thu 01:57:31 PM 45.7200 -72.5520 262° West 359 413 16,100 -2,080 Descending FlightAware ADS-B
Thu 01:58:06 PM 45.7130 -72.6290 263° West 355 409 15,000 -2,031 Descending FlightAware ADS-B
Thu 01:58:36 PM 45.7050 -72.7020 261° West 351 404 13,900 -2,123 Descending FlightAware ADS-B
Thu 01:59:11 PM 45.6970 -72.7780 261° West 346 398 12,700 -2,083 Descending FlightAware ADS-B
Thu 01:59:48 PM 45.6890 -72.8640 262° West 339 390 11,400 -1,808 Descending FlightAware ADS-B
Thu 02:00:24 PM 45.6810 -72.9430 262° West 325 374 10,500 -1,054 Descending FlightAware ADS-B
Thu 02:01:02 PM 45.6730 -73.0200 262° West 295 339 10,100 -517 Descending FlightAware ADS-B
Thu 02:01:22 PM 45.6690 -73.0580 261° West 281 323 10,000 -375 Descending FlightAware ADS-B
Thu 02:01:34 PM 45.6670 -73.0790 262° West 274 315 9,900 -938 Descending FlightAware ADS-B
Thu 02:01:54 PM 45.6630 -73.1150 261° West 267 307 9,500 -1,364 Descending FlightAware ADS-B
Thu 02:02:18 PM 45.6590 -73.1570 262° West 267 307 8,900 -1,421 Descending FlightAware ADS-B
Thu 02:02:32 PM 45.6550 -73.1800 256° West 266 306 8,600 -1,235 Descending FlightAware ADS-B
Thu 02:02:52 PM 45.6490 -73.2150 256° West 263 303 8,200 -1,143 Descending FlightAware ADS-B
Thu 02:03:14 PM 45.6420 -73.2520 255° West 260 299 7,800 -1,286 Descending FlightAware ADS-B
Thu 02:03:34 PM 45.6370 -73.2840 257° West 257 296 7,300 -1,333 Descending FlightAware ADS-B
Thu 02:03:50 PM 45.6330 -73.3110 258° West 255 293 7,000 -1,105 Descending FlightAware ADS-B
Thu 02:04:12 PM 45.6270 -73.3460 256° West 251 289 6,600 -1,286 Descending FlightAware ADS-B
Thu 02:04:32 PM 45.6220 -73.3790 258° West 249 287 6,100 -1,350 Descending FlightAware ADS-B
Thu 02:04:52 PM 45.6160 -73.4110 255° West 248 285 5,700 -1,350 Descending FlightAware ADS-B
Thu 02:05:12 PM 45.6110 -73.4430 257° West 248 285 5,200 -1,500 Descending FlightAware ADS-B
Thu 02:05:20 PM 45.6090 -73.4560 258° West 248 285 5,000 -1,167 Descending FlightAware ADS-B
Thu 02:05:48 PM 45.6010 -73.5000 255° West 243 280 4,500 -875 Descending FlightAware ADS-B
Thu 02:06:08 PM 45.5960 -73.5290 256° West 235 270 4,300 -600 Descending FlightAware ADS-B
Thu 02:06:28 PM 45.5910 -73.5600 257° West 225 259 4,100 -558 Descending FlightAware ADS-B
Thu 02:06:51 PM 45.5840 -73.5900 252° West 214 246 3,900 -500 Descending FlightAware ADS-B
Thu 02:07:04 PM 45.5760 -73.6060 234° Southwest 206 237 3,800 -364 Descending FlightAware ADS-B
Thu 02:07:24 PM 45.5630 -73.6240 224° Southwest 197 227 3,700 -500 Descending FlightAware ADS-B
Thu 02:07:40 PM 45.5520 -73.6390 224° Southwest 198 228 3,500 -1,059 Descending FlightAware ADS-B
Thu 02:07:58 PM 45.5410 -73.6540 224° Southwest 196 226 3,100 -1,050 Descending FlightAware ADS-B
Thu 02:08:20 PM 45.5260 -73.6730 222° Southwest 191 220 2,800 -955 Descending FlightAware ADS-B
Thu 02:08:42 PM 45.5120 -73.6910 222° Southwest 184 212 2,400 -977 Descending FlightAware ADS-B
Thu 02:09:03 PM 45.5000 -73.7080 225° Southwest 176 203 2,100 -900 Descending FlightAware ADS-B
Thu 02:09:22 PM 45.4890 -73.7220 222° Southwest 170 196 1,800 -857 Descending FlightAware ADS-B
Thu 02:09:38 PM 45.4790 -73.7340 220° Southwest 156 180 1,600 -833 Descending FlightAware ADS-B
Thu 02:09:58 PM 45.4690 -73.7480 224° Southwest 155 178 1,300 -818 Descending FlightAware ADS-B
Thu 02:10:22 PM 45.4570 -73.7640 223° Southwest 147 169 1,000 -706 Descending FlightAware ADS-B
Thu 02:10:49 PM 45.4430 -73.7820 222° Southwest 147 169 700 -766 Descending FlightAware ADS-B
Thu 02:11:09 PM 45.4330 -73.7950 222° Southwest 150 173 400 -638 Descending FlightAware ADS-B
Thu 02:11:36 PM 45.4200 -73.8120 223° Southwest 132 152 200 -444 Descending FlightAware ADS-B

Login

Don't have an account? Register now (free) for customized features, flight alerts, and more!